Grant Grove, CA (93633)

2:40 PM PDT on September 01, 2014 (GMT -0700)
RAWS PINEHURST CA US | Change Station
CLOSE
Current Station
Personal Weather Station
Location: Miramonte, CA
Elevation: 4060 ft
Nearby Weather Stations

Elev 4060 ft 36.70 °N, 119.02 °W | Updated 42 minutes ago

Clear
Clear
88 °F
Feels Like 84 °F
N
5
Wind Variable Wind from SW
Gusts 10.0 mph

Today
High -- | Low -- °F
--% Chance of Precip.
Yesterday
High -- | Low -- °F
Precip. -- in
6:27 AM 7:24 PM
Waxing Crescent, 44% visible
Pressure 29.74 in
Visibility 10.0 miles
Clouds Clear
Heat Index 84 °F
Dew Point 41 °F
Humidity 19%
Rainfall 0.00 in
Snow Depth Not available.
UV 10 out of 12
Pollen 9.20 out of 12
Air Quality Not available.
Flu Activity Not available.
METAR KBIH 012056Z AUTO 19007G18KT 10SM CLR 37/M03 A2991 RMK AO2 SLP071 T03671033 58024

More Conditions Fewer Conditions

Pressure 29.74 in
Visibility 10.0 miles
Clouds Clear
Heat Index 84 °F
Dew Point 41 °F
Humidity 19%
Rainfall 0.00 in
Snow Depth Not available.
UV 10 out of 12
Pollen 9.20 out of 12
Air Quality Not available.
Flu Activity Not available.
METAR KBIH 012056Z AUTO 19007G18KT 10SM CLR 37/M03 A2991 RMK AO2 SLP071 T03671033 58024

More Conditions Fewer Conditions

10-Day Weather Forecast

Almanac

Astronomy

Sep. 01, 2014 Rise Set
Actual Time 6:27 AM PDT 7:24 PM PDT
Civil Twilight 6:00 AM PDT 7:50 PM PDT
Nautical Twilight 5:29 AM PDT 8:22 PM PDT
Astronomical Twilight 4:56 AM PDT 8:54 PM PDT
Moon 1:07 PM PDT 11:39 PM PDT
Length of Visible Light 13h 50m
Length of Day
12h 57m
Tomorrow will be 2m 16s shorter.
Waxing Crescent, 44% of the Moon is Illuminated
Today
Waxing Crescent
Sep 2
First Quarter
Sep 8
Full
Sep 15
Last Quarter
Sep 24
New

Today's Extremes

State Highs State Lows

Community

WunderPhotos

Upload Photos

1,749,417 photos uploaded!

WunderBlogs® & News

Nearby

Snow Depth

Station Depth Elevation
Leavitt Meadows 0 in 7200 ft
CSS Lab 1 in 6900 ft
Adin Mountain 0 in 6200 ft

Earthquake Activity

City Distance Mag. Time & Date
Goldfield, Nevada 112 miles 2.7 7:38 PM PDT
2014-08-30
Minimum magnitude displayed is 2.5.

Coastal Water Temperatures

Place Temperature
No Stations Reporting

Nearby Weather Stations